NZWN/WLG METAR and TAF weather

Enter ICAO airport designator
Station Type Date Time Source
NZWN METAR 2020/01/17 22:30 UTC NOAA

NZWN 172230Z AUTO 18011KT 9999 OVC034/// 16/12 Q1020 NOSIG


Station Type Date Time Source
NZWN Decoded METAR 2020/01/17 22:30 UTC NOAA

Wellington Airport, New Zealand (NZWN) 41-20S 174-48E 8M
Jan 17, 2020 - 05:30 PM EST / 2020.01.17 2230 UTC
Wind: from the S (180 degrees) at 13 MPH (11 KT):0
Visibility: greater than 7 mile(s):0
Sky conditions: overcast
Temperature: 60 F (16 C)
Dew Point: 53 F (12 C)
Relative Humidity: 77%
Pressure (altimeter): 30.12 in. Hg (1020 hPa)
ob: NZWN 172230Z AUTO 18011KT 9999 OVC034/// 16/12 Q1020 NOSIG
cycle: 22

Station Type Date Time Source
NZWN TAF 2020/01/17 18:07 UTC NOAA

TAF NZWN 171705Z 1718/1818 15005KT 9999 BKN035
BECMG 1722/1800 18015KT
FM181200 18010KT 9999 -DZ BKN012

Example: see airport list